Time;durP1;ratioP1;P1;durP2;ratioP2;P2;SDS_P1;SDS_P2;PMS_P1;PMS_P2;Temp;Humidity;BMP_temperature;BMP_pressure;BME280_temperature;BME280_humidity;BME280_pressure;Samples;Min_cycle;Max_cycle;Signal;HPM_P1;HPM_P2
2022/03/10 00:00:01;;;;;;;16.50;12.80;;;;;;;3.66;52.62;101260.41;5083410;28;20495;-62
2022/03/10 00:02:27;;;;;;;18.90;13.47;;;;;;;3.66;51.80;101263.06;5100838;28;20490;-61
2022/03/10 00:04:54;;;;;;;23.67;12.63;;;;;;;3.72;51.85;101260.16;5089455;28;20452;-62
2022/03/10 00:07:20;;;;;;;16.90;12.40;;;;;;;3.81;51.37;101269.44;5097810;28;20773;-63
2022/03/10 00:09:49;;;;;;;19.57;13.53;;;;;;;3.76;51.37;101254.63;5101044;28;20499;-62
2022/03/10 00:12:16;;;;;;;22.33;13.73;;;;;;;3.83;51.38;101244.59;5097401;28;20479;-61
2022/03/10 00:14:42;;;;;;;16.30;12.13;;;;;;;3.83;51.18;101246.41;5081263;28;20476;-61
2022/03/10 00:17:09;;;;;;;22.20;14.03;;;;;;;3.84;51.10;101248.13;5080746;28;20974;-61
2022/03/10 00:19:35;;;;;;;17.43;12.17;;;;;;;3.87;51.14;101259.44;5084177;28;20503;-61
2022/03/10 00:22:02;;;;;;;18.40;12.57;;;;;;;3.87;51.19;101254.13;5081444;28;20503;-61
2022/03/10 00:24:28;;;;;;;19.67;12.87;;;;;;;3.85;51.33;101253.31;5081887;28;20822;-62
2022/03/10 00:26:56;;;;;;;18.13;14.00;;;;;;;3.89;51.88;101261.97;5100919;28;20498;-61
2022/03/10 00:29:23;;;;;;;17.87;13.80;;;;;;;3.63;52.25;101260.56;5082176;28;20443;-61
2022/03/10 00:31:50;;;;;;;17.60;12.07;;;;;;;3.55;52.30;101263.56;5081507;28;20499;-61
2022/03/10 00:34:17;;;;;;;20.90;13.07;;;;;;;3.61;52.09;101268.59;5094199;28;20488;-62
2022/03/10 00:36:43;;;;;;;16.90;12.23;;;;;;;3.65;52.08;101269.28;5084749;28;20462;-62
2022/03/10 00:39:10;;;;;;;14.00;11.30;;;;;;;3.67;52.09;101276.22;5085602;28;21010;-61
2022/03/10 00:41:36;;;;;;;17.20;11.90;;;;;;;3.68;51.84;101277.94;5087681;28;20851;-61
2022/03/10 00:44:05;;;;;;;16.67;13.60;;;;;;;3.64;52.12;101281.63;5101227;28;20482;-61
2022/03/10 00:46:31;;;;;;;15.23;11.73;;;;;;;3.63;52.14;101284.34;5078430;28;20448;-63
2022/03/10 00:48:58;;;;;;;16.63;12.53;;;;;;;3.58;52.33;101284.59;5084400;28;20478;-62
2022/03/10 00:51:25;;;;;;;17.63;12.77;;;;;;;3.59;52.42;101294.22;5085311;28;20471;-64
2022/03/10 00:53:51;;;;;;;22.83;12.57;;;;;;;3.64;52.40;101297.50;5097898;28;20447;-62
2022/03/10 00:56:18;;;;;;;19.30;12.83;;;;;;;3.66;52.28;101289.50;5086757;28;20527;-62
2022/03/10 00:58:44;;;;;;;18.40;12.37;;;;;;;3.57;52.60;101291.63;5084030;28;20467;-62
2022/03/10 01:01:12;;;;;;;17.10;12.50;;;;;;;3.64;52.53;101297.50;5088662;28;20531;-62
2022/03/10 01:03:39;;;;;;;16.40;12.03;;;;;;;3.63;52.38;101295.81;5102424;28;20486;-62
2022/03/10 01:06:05;;;;;;;17.47;12.80;;;;;;;3.57;52.67;101293.44;5099989;28;20440;-62
2022/03/10 01:08:32;;;;;;;18.63;12.57;;;;;;;3.50;52.71;101297.28;5092242;28;20466;-63
2022/03/10 01:10:59;;;;;;;19.90;12.20;;;;;;;3.42;53.08;101302.94;5092329;28;20463;-63
2022/03/10 01:13:25;;;;;;;15.73;11.63;;;;;;;3.36;53.30;101296.09;5095291;28;20478;-62
2022/03/10 01:15:52;;;;;;;14.77;11.63;;;;;;;3.36;53.40;101297.91;5100579;28;20509;-62
2022/03/10 01:18:20;;;;;;;18.83;12.90;;;;;;;3.32;53.73;101294.53;5102485;28;20899;-61
2022/03/10 01:20:46;;;;;;;16.77;12.20;;;;;;;3.35;53.76;101289.13;5104109;28;20922;-61
2022/03/10 01:23:13;;;;;;;23.20;13.67;;;;;;;3.40;53.54;101294.19;5100371;28;20514;-61
2022/03/10 01:25:40;;;;;;;18.73;12.30;;;;;;;3.45;53.57;101281.63;5096607;28;20439;-61
2022/03/10 01:28:07;;;;;;;22.00;12.93;;;;;;;3.29;54.06;101278.81;5086156;28;20519;-61
2022/03/10 01:30:33;;;;;;;17.50;12.20;;;;;;;3.26;54.31;101280.75;5083359;28;20449;-62
2022/03/10 01:33:00;;;;;;;15.73;12.30;;;;;;;3.17;54.75;101285.50;5084129;28;20475;-62
2022/03/10 01:35:28;;;;;;;15.20;11.20;;;;;;;3.17;54.78;101284.66;5084727;28;20503;-62
2022/03/10 01:37:55;;;;;;;18.43;12.00;;;;;;;3.06;54.96;101277.19;5084174;28;20487;-62
2022/03/10 01:40:21;;;;;;;18.30;12.10;;;;;;;3.01;55.35;101282.66;5086892;28;20532;-62
2022/03/10 01:42:48;;;;;;;17.17;12.37;;;;;;;3.11;55.41;101282.28;5092134;28;20549;-63
2022/03/10 01:45:16;;;;;;;17.57;14.10;;;;;;;3.07;55.55;101278.03;5103581;28;20422;-62
2022/03/10 01:47:43;;;;;;;16.83;12.80;;;;;;;3.02;55.99;101280.88;5101243;28;20497;-62
2022/03/10 01:50:13;;;;;;;22.00;13.93;;;;;;;2.92;56.52;101280.44;5103336;28;20494;-62
2022/03/10 01:52:41;;;;;;;17.20;11.97;;;;;;;2.91;56.26;101278.69;5101679;28;20447;-60
2022/03/10 01:55:09;;;;;;;16.60;13.00;;;;;;;2.90;56.40;101276.13;5085901;28;20456;-61
2022/03/10 01:57:36;;;;;;;17.57;12.93;;;;;;;2.97;56.22;101280.25;5082372;28;20470;-61
2022/03/10 02:00:03;;;;;;;20.90;12.80;;;;;;;2.96;56.26;101273.22;5085638;28;20523;-61
2022/03/10 02:02:30;;;;;;;15.80;12.00;;;;;;;2.99;56.37;101267.81;5095111;28;20494;-61
2022/03/10 02:04:56;;;;;;;17.47;12.63;;;;;;;2.87;57.26;101268.34;5083256;28;20459;-62
2022/03/10 02:10:17;;;;;;;18.33;13.20;;;;;;;2.81;57.87;101272.97;5103428;28;20501;-62
2022/03/10 02:12:44;;;;;;;17.13;13.60;;;;;;;2.81;57.77;101274.75;5095662;28;20506;-62
2022/03/10 02:18:00;;;;;;;18.63;13.87;;;;;;;2.75;58.08;101273.22;5081880;28;20843;-62
2022/03/10 02:20:26;;;;;;;19.10;15.90;;;;;;;2.64;58.54;101264.91;5083277;28;20429;-62
2022/03/10 02:22:55;;;;;;;18.83;13.67;;;;;;;2.56;59.00;101270.50;5097440;28;20467;-62
2022/03/10 02:25:23;;;;;;;22.23;15.17;;;;;;;2.52;59.02;101268.03;5086686;28;20463;-62
2022/03/10 02:27:50;;;;;;;19.40;13.50;;;;;;;2.50;58.46;101268.13;5090549;28;20510;-62
2022/03/10 02:30:18;;;;;;;20.00;13.80;;;;;;;2.61;57.94;101260.59;5103065;28;20435;-61
2022/03/10 02:32:45;;;;;;;19.73;13.07;;;;;;;2.68;57.76;101268.28;5094302;28;20515;-61
2022/03/10 02:35:12;;;;;;;19.60;13.27;;;;;;;2.70;57.63;101269.06;5082998;28;20521;-61
2022/03/10 02:37:38;;;;;;;19.53;13.10;;;;;;;2.73;57.18;101264.53;5091945;28;20618;-62
2022/03/10 02:40:08;;;;;;;20.53;13.80;;;;;;;2.75;57.55;101267.94;5092052;28;20486;-61
2022/03/10 02:42:34;;;;;;;16.70;12.70;;;;;;;2.75;57.27;101264.47;5100524;28;20902;-61
2022/03/10 02:45:01;;;;;;;20.27;14.17;;;;;;;2.70;57.60;101267.28;5084737;28;20503;-63
2022/03/10 02:47:28;;;;;;;18.33;12.87;;;;;;;2.63;57.15;101271.97;5082201;28;20466;-63
2022/03/10 02:49:55;;;;;;;19.93;13.83;;;;;;;2.74;56.83;101273.28;5086594;28;20467;-63
2022/03/10 02:52:21;;;;;;;25.07;12.97;;;;;;;2.76;56.88;101261.75;5082942;28;20448;-63
2022/03/10 02:54:48;;;;;;;20.53;14.40;;;;;;;2.76;56.74;101261.75;5097041;28;20986;-63
2022/03/10 02:57:16;;;;;;;18.17;13.07;;;;;;;2.81;56.51;101261.53;5100579;28;20451;-63
2022/03/10 02:59:43;;;;;;;21.13;13.03;;;;;;;2.81;56.40;101269.47;5095453;28;20483;-63
2022/03/10 03:02:10;;;;;;;16.63;12.90;;;;;;;2.67;56.64;101258.63;5081244;28;20553;-63
2022/03/10 03:04:36;;;;;;;20.30;12.50;;;;;;;2.69;56.77;101257.66;5081623;28;20486;-61
2022/03/10 03:07:04;;;;;;;23.80;13.57;;;;;;;2.75;56.84;101261.81;5100023;28;20502;-62
2022/03/10 03:09:30;;;;;;;21.23;12.77;;;;;;;2.77;56.66;101270.53;5101134;28;20457;-62
2022/03/10 03:11:57;;;;;;;15.00;12.43;;;;;;;2.82;56.63;101268.53;5088063;28;20503;-62
2022/03/10 03:14:25;;;;;;;22.93;12.23;;;;;;;2.77;56.56;101267.88;5099522;28;20443;-61
2022/03/10 03:16:52;;;;;;;15.60;11.60;;;;;;;2.81;56.53;101261.53;5101440;28;20427;-62
2022/03/10 03:19:18;;;;;;;20.97;12.53;;;;;;;2.75;56.58;101264.47;5082018;28;20531;-62
2022/03/10 03:21:45;;;;;;;17.47;11.43;;;;;;;2.72;56.67;101259.28;5082086;28;20515;-62
2022/03/10 03:24:12;;;;;;;17.03;12.17;;;;;;;2.74;56.57;101254.81;5087789;28;20537;-62
2022/03/10 03:26:38;;;;;;;17.20;11.90;;;;;;;2.76;56.46;101256.47;5100994;28;20455;-62
2022/03/10 03:29:05;;;;;;;21.13;12.90;;;;;;;2.72;56.75;101260.16;5095811;28;20474;-62
2022/03/10 03:31:33;;;;;;;14.57;11.40;;;;;;;2.65;57.14;101261.34;5082710;28;20464;-61
2022/03/10 03:33:59;;;;;;;18.23;12.40;;;;;;;2.54;57.55;101253.03;5081654;28;20487;-62
2022/03/10 03:36:26;;;;;;;21.00;14.10;;;;;;;2.40;58.52;101261.53;5092858;28;20531;-62
2022/03/10 03:38:52;;;;;;;21.07;13.80;;;;;;;2.24;59.35;101251.59;5086700;28;20551;-62
2022/03/10 03:41:19;;;;;;;17.20;12.90;;;;;;;2.20;59.81;101252.63;5101657;28;20499;-62
2022/03/10 03:43:46;;;;;;;17.97;13.90;;;;;;;2.19;59.58;101252.69;5092442;28;20483;-62
2022/03/10 03:46:12;;;;;;;19.73;13.40;;;;;;;2.19;59.27;101250.91;5081902;28;20451;-61
2022/03/10 03:48:40;;;;;;;24.53;13.30;;;;;;;2.16;59.37;101247.53;5081469;28;20571;-61
2022/03/10 03:51:07;;;;;;;19.00;14.10;;;;;;;2.10;59.57;101259.22;5081463;28;20535;-62
2022/03/10 03:53:34;;;;;;;16.93;12.90;;;;;;;2.05;59.91;101254.09;5093609;28;20483;-62
2022/03/10 03:56:00;;;;;;;17.97;13.77;;;;;;;2.05;59.77;101262.03;5088968;28;20467;-62
2022/03/10 03:58:27;;;;;;;17.33;12.40;;;;;;;2.06;59.68;101250.53;5088888;28;20479;-63
2022/03/10 04:00:54;;;;;;;18.37;13.43;;;;;;;2.04;60.04;101251.53;5082019;28;20487;-62
2022/03/10 04:03:20;;;;;;;17.47;12.70;;;;;;;2.03;59.98;101263.88;5097795;28;20557;-61
2022/03/10 04:05:48;;;;;;;20.63;14.87;;;;;;;2.00;60.08;101268.41;5101383;28;20957;-61
2022/03/10 04:08:15;;;;;;;18.27;11.80;;;;;;;1.94;60.33;101268.63;5101852;28;20424;-62
2022/03/10 04:10:41;;;;;;;19.47;13.60;;;;;;;1.88;60.48;101272.38;5085713;28;20456;-62
2022/03/10 04:13:09;;;;;;;20.27;13.83;;;;;;;1.80;61.09;101272.66;5084479;28;20478;-62
2022/03/10 04:15:36;;;;;;;23.00;14.23;;;;;;;1.77;61.23;101277.19;5098385;28;20438;-62
2022/03/10 04:18:03;;;;;;;18.43;13.70;;;;;;;1.82;60.89;101281.41;5098511;28;20490;-62
2022/03/10 04:20:29;;;;;;;20.60;14.40;;;;;;;1.80;60.86;101279.72;5086273;28;20535;-62
2022/03/10 04:22:57;;;;;;;22.57;12.93;;;;;;;1.80;60.92;101272.66;5088108;28;20522;-62
2022/03/10 04:25:24;;;;;;;19.30;12.90;;;;;;;1.80;61.24;101277.94;5085928;28;20527;-62
2022/03/10 04:27:53;;;;;;;19.70;13.70;;;;;;;1.80;61.12;101275.28;5087042;28;20473;-63
2022/03/10 04:30:22;;;;;;;20.83;14.50;;;;;;;1.87;60.60;101276.81;5102845;28;21005;-63
2022/03/10 04:32:48;;;;;;;21.07;14.67;;;;;;;1.88;60.38;101280.28;5084966;28;20459;-63
2022/03/10 04:35:17;;;;;;;19.37;13.80;;;;;;;1.87;60.24;101281.19;5084650;28;20471;-63
2022/03/10 04:37:44;;;;;;;19.80;12.70;;;;;;;1.90;59.90;101282.88;5102698;28;20541;-63
2022/03/10 04:40:12;;;;;;;16.37;11.93;;;;;;;1.94;59.70;101285.31;5087898;28;20504;-63
2022/03/10 04:42:39;;;;;;;23.60;14.07;;;;;;;1.94;59.76;101285.31;5084658;28;20543;-64
2022/03/10 04:45:07;;;;;;;18.63;13.83;;;;;;;1.88;60.06;101296.97;5085408;28;20452;-64
2022/03/10 04:47:34;;;;;;;22.43;14.60;;;;;;;1.83;60.36;101296.28;5084118;28;20879;-64
2022/03/10 04:50:00;;;;;;;19.63;13.73;;;;;;;1.79;60.56;101302.59;5085365;28;20440;-64
2022/03/10 04:52:27;;;;;;;20.27;13.83;;;;;;;1.77;60.40;101300.91;5100149;28;20474;-64
2022/03/10 04:54:54;;;;;;;21.57;14.13;;;;;;;1.84;60.21;101305.91;5096892;28;20497;-64
2022/03/10 04:57:22;;;;;;;21.03;13.93;;;;;;;1.86;60.09;101296.16;5097515;28;20464;-63
2022/03/10 04:59:49;;;;;;;18.57;13.43;;;;;;;1.85;60.31;101304.13;5084992;28;20496;-63
2022/03/10 05:02:16;;;;;;;18.43;13.03;;;;;;;1.82;60.23;101296.34;5100410;28;20518;-63
2022/03/10 05:04:42;;;;;;;20.77;15.20;;;;;;;1.78;60.27;101300.00;5102430;28;20470;-62
2022/03/10 05:07:09;;;;;;;19.63;12.30;;;;;;;1.81;60.05;101302.53;5100896;28;20440;-62
2022/03/10 05:09:35;;;;;;;20.83;14.20;;;;;;;1.77;60.21;101307.06;5083558;28;20458;-62
2022/03/10 05:12:02;;;;;;;18.00;13.20;;;;;;;1.71;60.31;101309.06;5084900;28;20487;-62
2022/03/10 05:14:30;;;;;;;20.23;13.83;;;;;;;1.73;60.36;101301.97;5084746;28;20460;-62
2022/03/10 05:16:57;;;;;;;21.10;13.73;;;;;;;1.75;60.19;101303.59;5088637;28;20459;-63
2022/03/10 05:19:24;;;;;;;16.37;13.00;;;;;;;1.68;60.38;101299.50;5093423;28;20459;-63
2022/03/10 05:21:50;;;;;;;20.97;14.50;;;;;;;1.65;60.48;101297.84;5090936;28;20471;-63
2022/03/10 05:24:17;;;;;;;19.67;13.20;;;;;;;1.62;60.54;101297.09;5092471;28;20949;-60
2022/03/10 05:26:44;;;;;;;20.17;13.20;;;;;;;1.47;61.03;101298.53;5093198;28;20486;-60
2022/03/10 05:29:11;;;;;;;21.80;14.27;;;;;;;1.37;61.56;101299.78;5080125;28;20478;-60
2022/03/10 05:31:39;;;;;;;21.70;13.67;;;;;;;1.40;61.74;101291.75;5096146;28;20471;-60
2022/03/10 05:34:07;;;;;;;17.80;13.23;;;;;;;1.39;61.71;101290.03;5084322;28;20523;-60
2022/03/10 05:36:34;;;;;;;20.87;14.60;;;;;;;1.38;61.85;101299.72;5085125;28;20456;-61
2022/03/10 05:39:01;;;;;;;20.47;13.10;;;;;;;1.37;61.71;101294.50;5088493;28;20486;-60
2022/03/10 05:41:27;;;;;;;19.60;14.80;;;;;;;1.35;61.79;101288.44;5103412;28;20872;-61
2022/03/10 05:43:54;;;;;;;16.53;12.33;;;;;;;1.35;62.02;101302.44;5095358;28;20488;-61
2022/03/10 05:46:20;;;;;;;19.67;15.20;;;;;;;1.40;61.90;101308.41;5091371;28;20481;-61
2022/03/10 05:48:48;;;;;;;23.27;13.70;;;;;;;1.46;61.76;101310.84;5099934;28;20490;-62
2022/03/10 05:51:15;;;;;;;20.50;14.00;;;;;;;1.43;62.14;101310.94;5102307;28;20431;-60
2022/03/10 05:53:42;;;;;;;20.40;13.77;;;;;;;1.39;62.49;101308.47;5102295;28;20455;-60
2022/03/10 05:56:08;;;;;;;21.47;14.23;;;;;;;1.42;62.40;101313.63;5093773;28;20475;-60
2022/03/10 05:58:35;;;;;;;19.03;14.50;;;;;;;1.42;62.34;101303.94;5084662;28;20487;-60
2022/03/10 06:01:02;;;;;;;21.33;14.40;;;;;;;1.41;62.51;101306.66;5097212;28;20813;-61
2022/03/10 06:03:28;;;;;;;24.10;15.90;;;;;;;1.48;62.21;101314.28;5082469;28;20808;-62
2022/03/10 06:05:56;;;;;;;20.30;14.80;;;;;;;1.83;61.77;101317.38;5095497;28;20447;-60
2022/03/10 06:08:23;;;;;;;26.73;15.20;;;;;;;2.28;60.37;101325.34;5084928;28;20765;-62
2022/03/10 06:10:49;;;;;;;22.17;14.67;;;;;;;2.93;58.40;101321.75;5082753;28;20519;-61
2022/03/10 06:13:16;;;;;;;22.80;14.73;;;;;;;3.03;57.56;101324.03;5081348;28;20450;-62
2022/03/10 06:15:42;;;;;;;17.67;12.43;;;;;;;3.69;56.12;101329.03;5082206;28;20490;-62
2022/03/10 06:18:09;;;;;;;18.60;12.97;;;;;;;3.79;55.40;101332.13;5080959;28;20490;-61
2022/03/10 06:20:36;;;;;;;17.63;13.40;;;;;;;4.06;54.49;101337.91;5081245;28;20477;-64
2022/03/10 06:23:04;;;;;;;17.20;13.27;;;;;;;3.66;54.07;101337.97;5092731;28;20550;-64
2022/03/10 06:25:31;;;;;;;18.53;12.60;;;;;;;3.52;54.86;101341.22;5086387;28;20467;-64
2022/03/10 06:27:57;;;;;;;16.90;12.80;;;;;;;3.51;54.72;101343.97;5086319;28;20482;-64
2022/03/10 06:30:24;;;;;;;17.10;12.77;;;;;;;3.37;55.50;101345.41;5080390;28;20470;-64
2022/03/10 06:32:50;;;;;;;16.87;13.40;;;;;;;3.25;55.94;101345.97;5099745;28;20864;-64
2022/03/10 06:35:17;;;;;;;16.40;12.97;;;;;;;3.10;56.45;101346.63;5082278;28;20539;-64
2022/03/10 06:37:45;;;;;;;19.43;13.47;;;;;;;3.39;56.77;101354.13;5080607;28;20523;-64
2022/03/10 06:40:13;;;;;;;20.77;13.67;;;;;;;5.67;52.78;101355.50;5082334;28;20439;-64
2022/03/10 06:42:40;;;;;;;15.90;12.83;;;;;;;8.23;45.25;101354.75;5100414;28;20915;-64
2022/03/10 06:45:07;;;;;;;13.90;11.00;;;;;;;10.54;41.45;101359.47;5100137;28;20459;-64
2022/03/10 06:47:33;;;;;;;15.67;10.60;;;;;;;12.48;37.17;101365.91;5098860;28;21129;-64
2022/03/10 06:50:01;;;;;;;16.20;10.83;;;;;;;13.41;32.35;101360.91;5099851;28;20423;-65
2022/03/10 06:52:31;;;;;;;14.73;11.50;;;;;;;14.80;31.54;101365.66;5095408;28;20444;-65
2022/03/10 06:54:58;;;;;;;16.67;12.00;;;;;;;15.59;29.02;101361.88;5079699;28;20447;-64
2022/03/10 06:57:26;;;;;;;16.30;11.53;;;;;;;15.37;28.66;101363.91;5079868;28;20989;-64
2022/03/10 06:59:53;;;;;;;15.97;11.80;;;;;;;15.01;28.65;101355.56;5059795;28;20986;-65
2022/03/10 07:02:20;;;;;;;14.53;12.07;;;;;;;15.30;28.76;101359.25;5058400;28;20488;-64
2022/03/10 07:04:46;;;;;;;15.43;11.20;;;;;;;15.70;28.07;101360.84;5059705;28;20461;-64
2022/03/10 07:07:13;;;;;;;15.67;12.57;;;;;;;16.32;27.24;101371.97;5066509;28;20523;-65
2022/03/10 07:09:41;;;;;;;14.53;12.50;;;;;;;16.79;27.01;101371.81;5077511;28;20448;-65
2022/03/10 07:12:09;;;;;;;13.30;11.90;;;;;;;16.70;25.87;101370.00;5079968;28;20443;-64
2022/03/10 07:14:37;;;;;;;16.87;12.10;;;;;;;17.05;24.86;101380.00;5079430;28;20513;-64
2022/03/10 07:17:05;;;;;;;14.97;11.70;;;;;;;17.37;25.02;101369.63;5078732;28;20436;-64
2022/03/10 07:19:31;;;;;;;18.03;11.87;;;;;;;18.40;23.22;101370.53;5078704;28;20498;-65
2022/03/10 07:21:58;;;;;;;16.17;11.70;;;;;;;17.72;24.12;101384.88;5079288;28;20455;-64
2022/03/10 07:24:26;;;;;;;15.90;11.80;;;;;;;17.27;24.74;101383.22;5075469;28;20587;-65
2022/03/10 07:26:53;;;;;;;12.50;11.10;;;;;;;16.29;25.41;101381.22;5079273;28;20432;-65
2022/03/10 07:29:19;;;;;;;16.23;11.87;;;;;;;15.43;27.24;101376.81;5081314;28;20546;-64
2022/03/10 07:31:47;;;;;;;14.27;10.83;;;;;;;15.23;27.73;101375.97;5078519;28;20464;-64
2022/03/10 07:34:14;;;;;;;12.67;11.30;;;;;;;14.39;28.79;101379.16;5077792;28;20467;-65
2022/03/10 07:36:42;;;;;;;12.20;10.50;;;;;;;15.01;27.67;101387.03;5078470;28;20503;-64
2022/03/10 07:39:09;;;;;;;14.07;10.83;;;;;;;15.87;26.74;101386.25;5078069;28;20492;-64
2022/03/10 07:41:36;;;;;;;12.80;11.13;;;;;;;15.37;27.68;101374.69;5078931;28;20551;-65
2022/03/10 07:44:03;;;;;;;11.90;10.70;;;;;;;15.81;26.61;101374.19;5092660;28;20484;-64
2022/03/10 07:46:30;;;;;;;15.07;11.87;;;;;;;16.42;26.55;101378.13;5098251;28;20419;-64
2022/03/10 07:48:58;;;;;;;13.10;11.17;;;;;;;15.61;27.02;101373.38;5098220;28;20451;-65
2022/03/10 07:51:25;;;;;;;12.83;10.70;;;;;;;14.82;27.77;101382.50;5099769;28;20435;-65
2022/03/10 07:53:52;;;;;;;11.40;10.20;;;;;;;14.32;28.75;101376.16;5080019;28;20459;-64
2022/03/10 07:56:18;;;;;;;12.90;11.53;;;;;;;15.32;27.44;101382.34;5097847;28;20448;-65
2022/03/10 07:58:45;;;;;;;13.23;9.60;;;;;;;15.75;27.75;101375.63;5078987;28;20428;-65
2022/03/10 08:01:12;;;;;;;12.20;10.20;;;;;;;15.73;27.16;101377.59;5078557;28;20436;-66
2022/03/10 08:03:39;;;;;;;13.20;10.50;;;;;;;15.84;26.15;101379.28;5078092;28;20554;-65
2022/03/10 08:06:08;;;;;;;12.40;11.00;;;;;;;16.32;25.99;101380.91;5079076;28;20436;-64
2022/03/10 08:08:35;;;;;;;10.77;9.67;;;;;;;15.27;26.69;101378.38;5057707;28;20452;-64
2022/03/10 08:11:03;;;;;;;12.77;9.83;;;;;;;16.76;25.50;101381.03;5099253;28;20435;-64
2022/03/10 08:13:31;;;;;;;14.03;10.30;;;;;;;17.62;24.67;101376.03;5092302;28;20440;-64
2022/03/10 08:15:58;;;;;;;17.90;10.40;;;;;;;18.74;23.30;101375.00;5078790;28;20424;-65
2022/03/10 08:18:35;;;;;;;12.20;9.53;;;;;;;17.79;23.85;101366.16;5077372;28;20810;-65
2022/03/10 08:21:02;;;;;;;12.57;10.27;;;;;;;16.54;25.82;101373.38;5080371;28;20447;-64
2022/03/10 08:23:30;;;;;;;12.57;9.80;;;;;;;16.79;26.03;101370.94;5097918;28;20997;-65
2022/03/10 08:25:57;;;;;;;17.30;9.60;;;;;;;17.22;24.86;101370.19;5079831;28;20448;-64
2022/03/10 08:28:26;;;;;;;12.50;9.33;;;;;;;16.51;25.79;101366.44;5078543;28;20494;-64
2022/03/10 08:30:52;;;;;;;12.40;10.40;;;;;;;17.94;24.71;101358.34;5085751;28;20891;-65
2022/03/10 08:33:20;;;;;;;14.17;9.33;;;;;;;17.65;24.28;101360.38;5084045;28;20450;-64
2022/03/10 08:35:46;;;;;;;10.80;9.70;;;;;;;16.55;25.55;101367.00;5078082;28;20452;-64
2022/03/10 08:38:13;;;;;;;12.20;9.43;;;;;;;16.48;26.56;101364.06;5078737;28;20553;-64
2022/03/10 08:40:41;;;;;;;11.73;8.83;;;;;;;17.36;24.49;101357.09;5077433;28;20471;-64
2022/03/10 08:43:11;;;;;;;10.93;9.83;;;;;;;16.85;25.27;101362.25;5077935;28;20480;-64
2022/03/10 08:45:39;;;;;;;9.63;8.60;;;;;;;17.68;24.62;101354.59;5077411;28;21033;-64
2022/03/10 08:48:06;;;;;;;12.83;9.20;;;;;;;17.36;24.40;101362.50;5076264;28;20459;-64
2022/03/10 08:50:33;;;;;;;10.00;8.93;;;;;;;16.78;25.67;101363.84;5078800;28;20663;-64
2022/03/10 08:53:00;;;;;;;13.83;10.90;;;;;;;17.14;24.87;101356.59;5079152;28;20432;-64
2022/03/10 08:55:27;;;;;;;14.17;10.27;;;;;;;17.52;24.49;101354.53;5080350;28;20451;-64
2022/03/10 08:57:55;;;;;;;13.13;9.57;;;;;;;15.90;26.75;101350.88;5093110;28;20466;-64
2022/03/10 09:00:22;;;;;;;12.87;10.87;;;;;;;17.43;24.51;101355.44;5082194;28;20467;-64
2022/03/10 09:02:49;;;;;;;11.47;9.10;;;;;;;17.33;25.23;101349.31;5080760;28;20476;-64
2022/03/10 09:05:15;;;;;;;10.60;9.33;;;;;;;18.05;23.78;101361.63;5082047;28;20487;-64
2022/03/10 09:07:42;;;;;;;10.07;8.87;;;;;;;18.34;23.66;101349.53;5081856;28;20432;-64
2022/03/10 09:10:10;;;;;;;23.67;10.73;;;;;;;17.52;24.12;101343.72;5080944;28;20479;-64
2022/03/10 09:12:37;;;;;;;10.87;8.97;;;;;;;17.70;24.10;101346.34;5083000;28;20506;-64
2022/03/10 09:15:06;;;;;;;11.57;9.90;;;;;;;18.32;23.29;101339.88;5081204;28;20876;-64
2022/03/10 09:17:32;;;;;;;9.60;8.60;;;;;;;17.31;24.11;101338.66;5080599;28;20951;-64
2022/03/10 09:19:59;;;;;;;13.90;9.07;;;;;;;18.48;23.22;101326.38;5080964;28;20420;-64
2022/03/10 09:22:26;;;;;;;12.23;9.20;;;;;;;18.39;23.26;101333.63;5076545;28;20444;-64
2022/03/10 09:24:53;;;;;;;10.80;9.70;;;;;;;17.27;24.63;101338.13;5078192;28;20501;-64
2022/03/10 09:27:19;;;;;;;11.90;9.03;;;;;;;17.84;23.41;101334.91;5081787;28;20459;-64
2022/03/10 09:29:46;;;;;;;11.27;10.07;;;;;;;18.50;23.52;101340.59;5081259;28;20471;-65
2022/03/10 09:32:14;;;;;;;10.80;9.63;;;;;;;18.20;22.86;101336.63;5080179;28;20436;-64
2022/03/10 09:34:41;;;;;;;10.47;9.17;;;;;;;17.99;23.64;101328.94;5079594;28;20498;-64
2022/03/10 09:37:08;;;;;;;13.53;10.17;;;;;;;17.21;24.36;101332.50;5080610;28;20969;-64
2022/03/10 09:39:34;;;;;;;11.00;8.60;;;;;;;17.55;23.94;101324.47;5079630;28;20475;-64
2022/03/10 09:42:05;;;;;;;11.00;9.90;;;;;;;17.21;24.55;101322.53;5081357;28;20428;-64
2022/03/10 09:44:34;;;;;;;10.27;8.93;;;;;;;16.92;25.05;101320.94;5079857;28;20511;-64
2022/03/10 09:47:03;;;;;;;11.00;9.80;;;;;;;17.13;24.59;101330.56;5078965;28;20447;-64
2022/03/10 09:49:33;;;;;;;13.10;9.40;;;;;;;16.32;25.48;101329.63;5079914;28;20440;-64
2022/03/10 09:52:01;;;;;;;10.50;9.13;;;;;;;16.78;25.46;101336.84;5081326;28;20466;-64
2022/03/10 09:54:27;;;;;;;14.80;9.90;;;;;;;17.59;23.84;101322.28;5079196;28;20448;-64
2022/03/10 09:56:55;;;;;;;11.87;9.73;;;;;;;18.10;23.35;101319.66;5080798;28;20424;-65
2022/03/10 09:59:22;;;;;;;11.07;10.07;;;;;;;17.60;24.02;101324.84;5080138;28;20448;-65
2022/03/10 10:01:49;;;;;;;12.17;9.60;;;;;;;17.23;24.33;101322.38;5079593;28;20464;-65
2022/03/10 10:04:16;;;;;;;18.47;9.10;;;;;;;17.67;24.55;101316.91;5080564;28;20496;-65
2022/03/10 10:07:05;;;;;;;10.60;9.27;;;;;;;17.84;24.21;101317.84;5080596;28;20493;-65
2022/03/10 10:09:46;;;;;;;11.37;9.80;;;;;;;17.90;23.82;101317.22;5079482;28;20448;-65
2022/03/10 10:12:14;;;;;;;15.93;10.20;;;;;;;18.74;22.64;101319.97;5062053;28;20429;-65
2022/03/10 10:14:42;;;;;;;17.13;10.20;;;;;;;18.21;23.56;101316.66;5080221;28;20448;-66
2022/03/10 10:17:09;;;;;;;13.00;10.13;;;;;;;19.55;22.59;101307.41;5080284;28;20428;-65
2022/03/10 10:19:36;;;;;;;10.40;9.20;;;;;;;19.77;22.11;101321.25;5079694;28;20501;-65
2022/03/10 10:22:12;;;;;;;11.00;9.00;;;;;;;19.61;21.51;101312.13;5081382;28;20433;-65
2022/03/10 10:24:39;;;;;;;12.20;10.20;;;;;;;18.79;22.78;101302.19;5091002;28;20494;-66
2022/03/10 10:27:13;;;;;;;11.07;9.90;;;;;;;17.57;24.15;101308.94;5080587;28;20436;-65
2022/03/10 10:29:46;;;;;;;10.23;8.77;;;;;;;18.15;23.68;101310.03;5089839;28;20530;-65
2022/03/10 10:32:12;;;;;;;12.60;9.80;;;;;;;17.30;24.90;101302.66;5099817;28;20462;-65
2022/03/10 10:34:39;;;;;;;12.17;9.40;;;;;;;17.47;24.42;101298.22;5094658;28;20454;-65
2022/03/10 10:37:06;;;;;;;12.43;9.43;;;;;;;18.04;23.67;101291.41;5099006;28;20460;-65
2022/03/10 10:40:03;;;;;;;10.90;8.80;;;;;;;19.18;22.31;101288.00;5099520;28;20540;-65
2022/03/10 10:42:31;;;;;;;11.23;8.83;;;;;;;18.11;23.58;101289.75;5100286;28;20439;-65
2022/03/10 10:45:00;;;;;;;10.30;9.20;;;;;;;19.29;22.88;101288.66;5079446;28;20498;-65
2022/03/10 10:47:27;;;;;;;13.00;9.33;;;;;;;18.39;23.34;101293.00;5085658;28;20684;-65
2022/03/10 10:49:58;;;;;;;13.37;9.73;;;;;;;17.40;25.10;101288.22;5093271;28;20521;-65
2022/03/10 10:52:25;;;;;;;9.67;8.60;;;;;;;18.42;23.82;101291.84;5079904;28;20521;-66
2022/03/10 10:55:09;;;;;;;14.17;9.70;;;;;;;18.52;23.43;101283.56;5079061;28;20849;-65
2022/03/10 10:57:37;;;;;;;12.73;9.83;;;;;;;18.67;23.41;101276.47;5079829;28;20455;-65
2022/03/10 11:00:07;;;;;;;9.50;8.60;;;;;;;19.16;23.17;101281.03;5079359;28;20447;-62
2022/03/10 11:02:36;;;;;;;17.20;10.77;;;;;;;19.09;23.37;101272.75;5077907;28;20539;-65
2022/03/10 11:05:03;;;;;;;25.20;12.77;;;;;;;18.94;23.75;101266.31;5079552;28;20483;-63
2022/03/10 11:07:30;;;;;;;12.20;9.87;;;;;;;17.80;24.36;101279.44;5079938;28;20603;-63
2022/03/10 11:09:56;;;;;;;10.00;9.00;;;;;;;18.01;23.77;101268.22;5079323;28;20455;-63
2022/03/10 11:12:24;;;;;;;12.70;9.40;;;;;;;18.81;23.48;101270.34;5079462;28;20451;-63
2022/03/10 11:14:51;;;;;;;10.30;9.00;;;;;;;19.26;22.26;101270.84;5087560;28;20511;-63
2022/03/10 11:17:19;;;;;;;11.40;9.60;;;;;;;19.05;22.82;101260.56;5099050;28;20419;-63
2022/03/10 11:19:47;;;;;;;10.87;9.67;;;;;;;18.67;23.14;101249.38;5099080;28;20459;-63
2022/03/10 11:22:27;;;;;;;10.60;8.77;;;;;;;18.37;23.55;101259.84;5099723;28;20552;-63